sensor_id;sensor_type;location;lat;lon;timestamp;P1;durP1;ratioP1;P2;durP2;ratioP2
64907;SDS011;69061;52.236;5.188;2023-09-19T00:01:34;9.50;;;4.03;;
64907;SDS011;69061;52.236;5.188;2023-09-19T00:04:02;9.35;;;4.28;;
64907;SDS011;69061;52.236;5.188;2023-09-19T00:06:34;17.20;;;4.88;;
64907;SDS011;69061;52.236;5.188;2023-09-19T00:09:01;14.40;;;4.00;;
64907;SDS011;69061;52.236;5.188;2023-09-19T00:11:29;12.75;;;4.78;;
64907;SDS011;69061;52.236;5.188;2023-09-19T00:13:56;20.15;;;4.55;;
64907;SDS011;69061;52.236;5.188;2023-09-19T00:16:24;14.55;;;4.32;;
64907;SDS011;69061;52.236;5.188;2023-09-19T00:18:52;9.52;;;3.60;;
64907;SDS011;69061;52.236;5.188;2023-09-19T00:21:21;10.85;;;3.88;;
64907;SDS011;69061;52.236;5.188;2023-09-19T00:23:48;13.20;;;4.07;;
64907;SDS011;69061;52.236;5.188;2023-09-19T00:26:16;9.02;;;4.32;;
64907;SDS011;69061;52.236;5.188;2023-09-19T00:28:44;10.88;;;4.30;;
64907;SDS011;69061;52.236;5.188;2023-09-19T00:31:10;12.63;;;3.63;;
64907;SDS011;69061;52.236;5.188;2023-09-19T00:33:38;16.73;;;4.30;;
64907;SDS011;69061;52.236;5.188;2023-09-19T00:36:04;12.95;;;4.55;;
64907;SDS011;69061;52.236;5.188;2023-09-19T00:38:32;9.50;;;3.63;;
64907;SDS011;69061;52.236;5.188;2023-09-19T00:40:59;10.88;;;3.35;;
64907;SDS011;69061;52.236;5.188;2023-09-19T00:43:26;13.10;;;3.80;;
64907;SDS011;69061;52.236;5.188;2023-09-19T00:45:54;8.60;;;3.83;;
64907;SDS011;69061;52.236;5.188;2023-09-19T00:48:22;11.75;;;4.10;;
64907;SDS011;69061;52.236;5.188;2023-09-19T00:50:52;10.02;;;3.83;;
64907;SDS011;69061;52.236;5.188;2023-09-19T00:53:20;10.38;;;3.72;;
64907;SDS011;69061;52.236;5.188;2023-09-19T00:55:51;13.57;;;4.00;;
64907;SDS011;69061;52.236;5.188;2023-09-19T00:58:19;11.48;;;3.78;;
64907;SDS011;69061;52.236;5.188;2023-09-19T01:00:46;9.18;;;3.75;;
64907;SDS011;69061;52.236;5.188;2023-09-19T01:03:14;14.13;;;4.10;;
64907;SDS011;69061;52.236;5.188;2023-09-19T01:05:40;13.30;;;4.03;;
64907;SDS011;69061;52.236;5.188;2023-09-19T01:08:08;11.27;;;3.88;;
64907;SDS011;69061;52.236;5.188;2023-09-19T01:10:36;14.10;;;3.97;;
64907;SDS011;69061;52.236;5.188;2023-09-19T01:13:13;15.10;;;4.03;;
64907;SDS011;69061;52.236;5.188;2023-09-19T01:15:49;7.72;;;3.53;;
64907;SDS011;69061;52.236;5.188;2023-09-19T01:18:26;13.30;;;3.80;;
64907;SDS011;69061;52.236;5.188;2023-09-19T01:21:00;12.20;;;4.18;;
64907;SDS011;69061;52.236;5.188;2023-09-19T01:23:36;15.95;;;4.38;;
64907;SDS011;69061;52.236;5.188;2023-09-19T01:26:24;8.80;;;3.45;;
64907;SDS011;69061;52.236;5.188;2023-09-19T01:29:16;14.25;;;3.90;;
64907;SDS011;69061;52.236;5.188;2023-09-19T01:31:59;10.77;;;4.05;;
64907;SDS011;69061;52.236;5.188;2023-09-19T01:34:42;13.10;;;3.90;;
64907;SDS011;69061;52.236;5.188;2023-09-19T01:37:11;13.35;;;4.00;;
64907;SDS011;69061;52.236;5.188;2023-09-19T01:39:39;8.50;;;3.42;;
64907;SDS011;69061;52.236;5.188;2023-09-19T01:42:07;13.82;;;4.25;;
64907;SDS011;69061;52.236;5.188;2023-09-19T01:44:48;12.68;;;3.80;;
64907;SDS011;69061;52.236;5.188;2023-09-19T01:47:26;11.52;;;4.05;;
64907;SDS011;69061;52.236;5.188;2023-09-19T01:50:00;11.82;;;3.60;;
64907;SDS011;69061;52.236;5.188;2023-09-19T01:52:39;15.55;;;3.78;;
64907;SDS011;69061;52.236;5.188;2023-09-19T01:55:13;16.55;;;4.45;;
64907;SDS011;69061;52.236;5.188;2023-09-19T01:57:45;8.55;;;3.53;;
64907;SDS011;69061;52.236;5.188;2023-09-19T02:00:18;10.05;;;4.05;;
64907;SDS011;69061;52.236;5.188;2023-09-19T02:02:50;9.48;;;4.60;;
64907;SDS011;69061;52.236;5.188;2023-09-19T02:05:23;14.85;;;4.45;;
64907;SDS011;69061;52.236;5.188;2023-09-19T02:07:52;8.95;;;3.50;;
64907;SDS011;69061;52.236;5.188;2023-09-19T02:10:19;10.63;;;3.92;;
64907;SDS011;69061;52.236;5.188;2023-09-19T02:12:45;12.23;;;4.63;;
64907;SDS011;69061;52.236;5.188;2023-09-19T02:15:12;14.75;;;4.05;;
64907;SDS011;69061;52.236;5.188;2023-09-19T02:17:40;10.75;;;3.50;;
64907;SDS011;69061;52.236;5.188;2023-09-19T02:20:12;12.23;;;4.07;;
64907;SDS011;69061;52.236;5.188;2023-09-19T02:22:39;16.27;;;4.25;;
64907;SDS011;69061;52.236;5.188;2023-09-19T02:25:06;15.85;;;4.32;;
64907;SDS011;69061;52.236;5.188;2023-09-19T02:27:33;9.77;;;4.30;;
64907;SDS011;69061;52.236;5.188;2023-09-19T02:30:01;14.10;;;4.22;;
64907;SDS011;69061;52.236;5.188;2023-09-19T02:32:28;11.82;;;4.40;;
64907;SDS011;69061;52.236;5.188;2023-09-19T02:34:56;13.85;;;4.70;;
64907;SDS011;69061;52.236;5.188;2023-09-19T02:37:25;16.52;;;3.88;;
64907;SDS011;69061;52.236;5.188;2023-09-19T02:39:51;11.98;;;4.18;;
64907;SDS011;69061;52.236;5.188;2023-09-19T02:42:18;18.52;;;4.32;;
64907;SDS011;69061;52.236;5.188;2023-09-19T02:44:45;13.70;;;4.20;;
64907;SDS011;69061;52.236;5.188;2023-09-19T02:47:13;10.98;;;4.15;;
64907;SDS011;69061;52.236;5.188;2023-09-19T02:49:41;19.90;;;5.47;;
64907;SDS011;69061;52.236;5.188;2023-09-19T02:52:08;14.60;;;5.75;;
64907;SDS011;69061;52.236;5.188;2023-09-19T02:54:37;11.20;;;3.95;;
64907;SDS011;69061;52.236;5.188;2023-09-19T02:57:04;17.63;;;5.00;;
64907;SDS011;69061;52.236;5.188;2023-09-19T02:59:32;17.42;;;5.45;;
64907;SDS011;69061;52.236;5.188;2023-09-19T03:02:02;15.95;;;4.72;;
64907;SDS011;69061;52.236;5.188;2023-09-19T03:04:29;15.85;;;5.50;;
64907;SDS011;69061;52.236;5.188;2023-09-19T03:06:56;16.13;;;5.32;;
64907;SDS011;69061;52.236;5.188;2023-09-19T03:09:25;22.85;;;4.85;;
64907;SDS011;69061;52.236;5.188;2023-09-19T03:11:55;12.38;;;4.18;;
64907;SDS011;69061;52.236;5.188;2023-09-19T03:14:22;16.77;;;4.35;;
64907;SDS011;69061;52.236;5.188;2023-09-19T03:16:48;17.67;;;5.35;;
64907;SDS011;69061;52.236;5.188;2023-09-19T03:19:17;19.38;;;5.30;;
64907;SDS011;69061;52.236;5.188;2023-09-19T03:21:45;16.33;;;4.35;;
64907;SDS011;69061;52.236;5.188;2023-09-19T03:24:15;16.42;;;5.10;;
64907;SDS011;69061;52.236;5.188;2023-09-19T03:26:42;19.30;;;4.53;;
64907;SDS011;69061;52.236;5.188;2023-09-19T03:29:11;17.92;;;5.15;;
64907;SDS011;69061;52.236;5.188;2023-09-19T03:31:38;15.35;;;5.55;;
64907;SDS011;69061;52.236;5.188;2023-09-19T03:34:05;15.48;;;5.05;;
64907;SDS011;69061;52.236;5.188;2023-09-19T03:36:32;13.60;;;4.53;;
64907;SDS011;69061;52.236;5.188;2023-09-19T03:38:59;17.90;;;5.10;;
64907;SDS011;69061;52.236;5.188;2023-09-19T03:41:26;15.85;;;5.32;;
64907;SDS011;69061;52.236;5.188;2023-09-19T03:43:53;19.08;;;4.65;;
64907;SDS011;69061;52.236;5.188;2023-09-19T03:46:21;10.65;;;5.13;;
64907;SDS011;69061;52.236;5.188;2023-09-19T03:48:47;16.33;;;4.78;;
64907;SDS011;69061;52.236;5.188;2023-09-19T03:51:15;18.35;;;5.72;;
64907;SDS011;69061;52.236;5.188;2023-09-19T03:53:42;12.52;;;4.82;;
64907;SDS011;69061;52.236;5.188;2023-09-19T03:56:08;11.27;;;4.82;;
64907;SDS011;69061;52.236;5.188;2023-09-19T03:58:35;21.63;;;6.45;;
64907;SDS011;69061;52.236;5.188;2023-09-19T04:01:04;41.90;;;5.53;;
64907;SDS011;69061;52.236;5.188;2023-09-19T04:03:34;13.90;;;4.72;;
64907;SDS011;69061;52.236;5.188;2023-09-19T04:06:11;19.15;;;5.13;;
64907;SDS011;69061;52.236;5.188;2023-09-19T04:08:39;22.60;;;5.97;;
64907;SDS011;69061;52.236;5.188;2023-09-19T04:11:06;18.83;;;4.38;;
64907;SDS011;69061;52.236;5.188;2023-09-19T04:13:32;23.65;;;5.25;;
64907;SDS011;69061;52.236;5.188;2023-09-19T04:15:59;17.60;;;4.72;;
64907;SDS011;69061;52.236;5.188;2023-09-19T04:18:26;18.52;;;5.00;;
64907;SDS011;69061;52.236;5.188;2023-09-19T04:20:54;18.67;;;4.35;;
64907;SDS011;69061;52.236;5.188;2023-09-19T04:23:21;22.65;;;5.38;;
64907;SDS011;69061;52.236;5.188;2023-09-19T04:25:47;17.05;;;4.53;;
64907;SDS011;69061;52.236;5.188;2023-09-19T04:28:14;15.65;;;4.55;;
64907;SDS011;69061;52.236;5.188;2023-09-19T04:30:41;17.70;;;4.78;;
64907;SDS011;69061;52.236;5.188;2023-09-19T04:33:09;15.25;;;4.47;;
64907;SDS011;69061;52.236;5.188;2023-09-19T04:35:36;18.77;;;5.28;;
64907;SDS011;69061;52.236;5.188;2023-09-19T04:38:05;16.23;;;5.70;;
64907;SDS011;69061;52.236;5.188;2023-09-19T04:40:32;15.75;;;5.30;;
64907;SDS011;69061;52.236;5.188;2023-09-19T04:42:59;16.58;;;4.78;;
64907;SDS011;69061;52.236;5.188;2023-09-19T04:45:26;17.80;;;4.68;;
64907;SDS011;69061;52.236;5.188;2023-09-19T04:47:53;16.23;;;4.70;;
64907;SDS011;69061;52.236;5.188;2023-09-19T04:50:21;22.40;;;5.05;;
64907;SDS011;69061;52.236;5.188;2023-09-19T04:52:48;21.67;;;4.90;;
64907;SDS011;69061;52.236;5.188;2023-09-19T04:55:18;19.48;;;5.07;;
64907;SDS011;69061;52.236;5.188;2023-09-19T04:57:45;24.67;;;5.50;;
64907;SDS011;69061;52.236;5.188;2023-09-19T05:00:14;18.88;;;4.88;;
64907;SDS011;69061;52.236;5.188;2023-09-19T05:02:42;17.02;;;4.90;;
64907;SDS011;69061;52.236;5.188;2023-09-19T05:05:09;22.02;;;4.82;;
64907;SDS011;69061;52.236;5.188;2023-09-19T05:07:37;23.77;;;6.03;;
64907;SDS011;69061;52.236;5.188;2023-09-19T05:10:05;15.90;;;4.30;;
64907;SDS011;69061;52.236;5.188;2023-09-19T05:12:34;18.50;;;5.22;;
64907;SDS011;69061;52.236;5.188;2023-09-19T05:15:01;17.40;;;5.38;;
64907;SDS011;69061;52.236;5.188;2023-09-19T05:17:29;19.10;;;4.63;;
64907;SDS011;69061;52.236;5.188;2023-09-19T05:19:56;15.32;;;4.10;;
64907;SDS011;69061;52.236;5.188;2023-09-19T05:22:26;23.42;;;5.75;;
64907;SDS011;69061;52.236;5.188;2023-09-19T05:24:53;17.52;;;4.65;;
64907;SDS011;69061;52.236;5.188;2023-09-19T05:27:20;14.50;;;4.00;;
64907;SDS011;69061;52.236;5.188;2023-09-19T05:29:49;15.80;;;4.25;;
64907;SDS011;69061;52.236;5.188;2023-09-19T05:32:18;16.63;;;4.70;;
64907;SDS011;69061;52.236;5.188;2023-09-19T05:34:45;16.65;;;4.85;;
64907;SDS011;69061;52.236;5.188;2023-09-19T05:37:12;18.77;;;4.55;;
64907;SDS011;69061;52.236;5.188;2023-09-19T05:39:41;17.02;;;4.90;;
64907;SDS011;69061;52.236;5.188;2023-09-19T05:42:08;18.33;;;5.20;;
64907;SDS011;69061;52.236;5.188;2023-09-19T05:44:35;20.88;;;5.70;;
64907;SDS011;69061;52.236;5.188;2023-09-19T05:47:05;16.02;;;5.72;;
64907;SDS011;69061;52.236;5.188;2023-09-19T05:49:34;16.30;;;4.57;;
64907;SDS011;69061;52.236;5.188;2023-09-19T05:52:04;20.80;;;6.03;;
64907;SDS011;69061;52.236;5.188;2023-09-19T05:54:32;23.13;;;4.88;;
64907;SDS011;69061;52.236;5.188;2023-09-19T05:56:59;19.40;;;4.50;;
64907;SDS011;69061;52.236;5.188;2023-09-19T05:59:26;13.55;;;4.93;;
64907;SDS011;69061;52.236;5.188;2023-09-19T06:01:53;16.35;;;4.80;;
64907;SDS011;69061;52.236;5.188;2023-09-19T06:04:22;14.52;;;4.97;;
64907;SDS011;69061;52.236;5.188;2023-09-19T06:06:50;25.45;;;4.57;;
64907;SDS011;69061;52.236;5.188;2023-09-19T06:09:18;17.35;;;4.80;;
64907;SDS011;69061;52.236;5.188;2023-09-19T06:11:45;21.42;;;4.28;;
64907;SDS011;69061;52.236;5.188;2023-09-19T06:14:12;16.48;;;4.82;;
64907;SDS011;69061;52.236;5.188;2023-09-19T06:16:39;23.42;;;5.30;;
64907;SDS011;69061;52.236;5.188;2023-09-19T06:19:07;18.52;;;5.65;;
64907;SDS011;69061;52.236;5.188;2023-09-19T06:21:35;16.90;;;4.93;;
64907;SDS011;69061;52.236;5.188;2023-09-19T06:24:03;15.32;;;4.80;;
64907;SDS011;69061;52.236;5.188;2023-09-19T06:26:30;20.52;;;4.68;;
64907;SDS011;69061;52.236;5.188;2023-09-19T06:28:57;15.68;;;5.63;;
64907;SDS011;69061;52.236;5.188;2023-09-19T06:31:24;26.15;;;5.40;;
64907;SDS011;69061;52.236;5.188;2023-09-19T06:33:51;23.77;;;6.28;;
64907;SDS011;69061;52.236;5.188;2023-09-19T06:36:18;20.95;;;5.20;;
64907;SDS011;69061;52.236;5.188;2023-09-19T06:38:46;14.38;;;5.30;;
64907;SDS011;69061;52.236;5.188;2023-09-19T06:41:16;17.77;;;4.80;;
64907;SDS011;69061;52.236;5.188;2023-09-19T06:43:43;20.52;;;5.80;;
64907;SDS011;69061;52.236;5.188;2023-09-19T06:46:11;17.23;;;5.72;;
64907;SDS011;69061;52.236;5.188;2023-09-19T06:48:38;18.48;;;5.45;;
64907;SDS011;69061;52.236;5.188;2023-09-19T06:51:06;19.55;;;5.57;;
64907;SDS011;69061;52.236;5.188;2023-09-19T06:53:33;26.05;;;5.60;;
64907;SDS011;69061;52.236;5.188;2023-09-19T06:56:02;18.13;;;5.03;;
64907;SDS011;69061;52.236;5.188;2023-09-19T06:58:30;19.38;;;5.00;;
64907;SDS011;69061;52.236;5.188;2023-09-19T07:00:57;17.40;;;5.35;;
64907;SDS011;69061;52.236;5.188;2023-09-19T07:03:25;28.17;;;7.38;;
64907;SDS011;69061;52.236;5.188;2023-09-19T07:05:53;20.92;;;5.50;;
64907;SDS011;69061;52.236;5.188;2023-09-19T07:08:21;22.38;;;5.90;;
64907;SDS011;69061;52.236;5.188;2023-09-19T07:10:48;18.58;;;4.78;;
64907;SDS011;69061;52.236;5.188;2023-09-19T07:13:20;19.70;;;5.65;;
64907;SDS011;69061;52.236;5.188;2023-09-19T07:15:47;20.30;;;6.40;;
64907;SDS011;69061;52.236;5.188;2023-09-19T07:18:15;22.67;;;5.25;;
64907;SDS011;69061;52.236;5.188;2023-09-19T07:20:42;18.73;;;5.65;;
64907;SDS011;69061;52.236;5.188;2023-09-19T07:23:13;18.77;;;5.60;;
64907;SDS011;69061;52.236;5.188;2023-09-19T07:25:43;20.17;;;5.50;;
64907;SDS011;69061;52.236;5.188;2023-09-19T07:28:11;26.92;;;7.05;;
64907;SDS011;69061;52.236;5.188;2023-09-19T07:30:39;20.42;;;5.53;;
64907;SDS011;69061;52.236;5.188;2023-09-19T07:33:06;29.33;;;5.97;;
64907;SDS011;69061;52.236;5.188;2023-09-19T07:35:36;36.22;;;6.43;;
64907;SDS011;69061;52.236;5.188;2023-09-19T07:38:05;22.77;;;6.28;;
64907;SDS011;69061;52.236;5.188;2023-09-19T07:40:31;23.48;;;6.57;;
64907;SDS011;69061;52.236;5.188;2023-09-19T07:42:58;21.67;;;5.55;;
64907;SDS011;69061;52.236;5.188;2023-09-19T07:45:26;26.25;;;6.28;;
64907;SDS011;69061;52.236;5.188;2023-09-19T07:47:56;20.60;;;5.63;;
64907;SDS011;69061;52.236;5.188;2023-09-19T07:50:23;17.77;;;4.65;;
64907;SDS011;69061;52.236;5.188;2023-09-19T07:52:51;24.25;;;5.45;;
64907;SDS011;69061;52.236;5.188;2023-09-19T07:55:20;23.52;;;6.15;;
64907;SDS011;69061;52.236;5.188;2023-09-19T07:57:48;18.92;;;5.28;;
64907;SDS011;69061;52.236;5.188;2023-09-19T08:00:15;22.20;;;5.25;;
64907;SDS011;69061;52.236;5.188;2023-09-19T08:02:43;26.92;;;6.43;;
64907;SDS011;69061;52.236;5.188;2023-09-19T08:05:12;19.88;;;5.70;;
64907;SDS011;69061;52.236;5.188;2023-09-19T08:07:42;26.23;;;6.05;;
64907;SDS011;69061;52.236;5.188;2023-09-19T08:10:10;23.25;;;6.65;;
64907;SDS011;69061;52.236;5.188;2023-09-19T08:12:38;17.52;;;5.03;;
64907;SDS011;69061;52.236;5.188;2023-09-19T08:15:11;27.67;;;7.25;;
64907;SDS011;69061;52.236;5.188;2023-09-19T08:17:38;25.40;;;5.70;;
64907;SDS011;69061;52.236;5.188;2023-09-19T08:20:07;22.98;;;5.75;;
64907;SDS011;69061;52.236;5.188;2023-09-19T08:22:43;41.55;;;7.43;;
64907;SDS011;69061;52.236;5.188;2023-09-19T08:25:13;24.10;;;5.70;;
64907;SDS011;69061;52.236;5.188;2023-09-19T08:27:42;31.85;;;7.07;;
64907;SDS011;69061;52.236;5.188;2023-09-19T08:30:13;19.52;;;5.75;;
64907;SDS011;69061;52.236;5.188;2023-09-19T08:32:39;25.02;;;5.88;;
64907;SDS011;69061;52.236;5.188;2023-09-19T08:35:07;20.60;;;6.32;;
64907;SDS011;69061;52.236;5.188;2023-09-19T08:37:35;21.63;;;6.95;;
64907;SDS011;69061;52.236;5.188;2023-09-19T08:40:03;27.38;;;6.43;;
64907;SDS011;69061;52.236;5.188;2023-09-19T08:42:46;22.25;;;6.35;;
64907;SDS011;69061;52.236;5.188;2023-09-19T08:45:13;14.38;;;5.15;;
64907;SDS011;69061;52.236;5.188;2023-09-19T08:47:45;25.27;;;6.28;;
64907;SDS011;69061;52.236;5.188;2023-09-19T08:50:18;23.08;;;5.78;;
64907;SDS011;69061;52.236;5.188;2023-09-19T08:52:51;23.17;;;5.78;;
64907;SDS011;69061;52.236;5.188;2023-09-19T08:55:26;20.13;;;6.13;;
64907;SDS011;69061;52.236;5.188;2023-09-19T08:57:57;26.15;;;6.80;;
64907;SDS011;69061;52.236;5.188;2023-09-19T09:00:27;26.67;;;5.65;;
64907;SDS011;69061;52.236;5.188;2023-09-19T09:02:55;22.90;;;6.30;;
64907;SDS011;69061;52.236;5.188;2023-09-19T09:05:23;23.58;;;6.63;;
64907;SDS011;69061;52.236;5.188;2023-09-19T09:07:51;24.48;;;6.45;;
64907;SDS011;69061;52.236;5.188;2023-09-19T09:10:20;18.77;;;5.43;;
64907;SDS011;69061;52.236;5.188;2023-09-19T09:12:49;18.30;;;6.25;;
64907;SDS011;69061;52.236;5.188;2023-09-19T09:15:18;17.63;;;5.45;;
64907;SDS011;69061;52.236;5.188;2023-09-19T09:17:46;19.45;;;6.13;;
64907;SDS011;69061;52.236;5.188;2023-09-19T09:20:15;27.17;;;6.88;;
64907;SDS011;69061;52.236;5.188;2023-09-19T09:22:50;22.80;;;5.63;;
64907;SDS011;69061;52.236;5.188;2023-09-19T09:25:17;22.58;;;5.40;;
64907;SDS011;69061;52.236;5.188;2023-09-19T09:27:45;21.85;;;6.57;;
64907;SDS011;69061;52.236;5.188;2023-09-19T09:30:21;24.02;;;6.00;;
64907;SDS011;69061;52.236;5.188;2023-09-19T09:33:07;18.92;;;4.93;;
64907;SDS011;69061;52.236;5.188;2023-09-19T09:35:35;27.25;;;6.05;;
64907;SDS011;69061;52.236;5.188;2023-09-19T09:38:02;20.38;;;6.03;;
64907;SDS011;69061;52.236;5.188;2023-09-19T09:40:38;23.38;;;5.72;;
64907;SDS011;69061;52.236;5.188;2023-09-19T09:43:25;27.40;;;6.60;;
64907;SDS011;69061;52.236;5.188;2023-09-19T09:46:08;24.55;;;5.30;;
64907;SDS011;69061;52.236;5.188;2023-09-19T09:49:00;20.98;;;5.00;;
64907;SDS011;69061;52.236;5.188;2023-09-19T09:51:58;19.10;;;5.50;;
64907;SDS011;69061;52.236;5.188;2023-09-19T09:54:30;37.05;;;7.05;;
64907;SDS011;69061;52.236;5.188;2023-09-19T09:57:02;19.92;;;5.82;;
64907;SDS011;69061;52.236;5.188;2023-09-19T09:59:48;26.27;;;6.13;;
64907;SDS011;69061;52.236;5.188;2023-09-19T10:02:20;24.85;;;6.78;;
64907;SDS011;69061;52.236;5.188;2023-09-19T10:04:54;28.33;;;6.72;;
64907;SDS011;69061;52.236;5.188;2023-09-19T10:07:34;21.10;;;5.85;;
64907;SDS011;69061;52.236;5.188;2023-09-19T10:10:04;18.65;;;5.90;;
64907;SDS011;69061;52.236;5.188;2023-09-19T10:12:42;19.10;;;4.97;;
64907;SDS011;69061;52.236;5.188;2023-09-19T10:15:13;21.65;;;5.55;;
64907;SDS011;69061;52.236;5.188;2023-09-19T10:17:44;15.45;;;5.80;;
64907;SDS011;69061;52.236;5.188;2023-09-19T10:20:12;16.77;;;5.65;;
64907;SDS011;69061;52.236;5.188;2023-09-19T10:22:55;15.32;;;5.03;;
64907;SDS011;69061;52.236;5.188;2023-09-19T10:25:25;21.20;;;6.07;;
64907;SDS011;69061;52.236;5.188;2023-09-19T10:27:54;14.38;;;6.05;;
64907;SDS011;69061;52.236;5.188;2023-09-19T10:30:22;22.25;;;6.47;;
64907;SDS011;69061;52.236;5.188;2023-09-19T10:32:54;18.00;;;6.18;;
64907;SDS011;69061;52.236;5.188;2023-09-19T10:35:25;20.80;;;6.18;;
64907;SDS011;69061;52.236;5.188;2023-09-19T10:37:54;15.80;;;5.43;;
64907;SDS011;69061;52.236;5.188;2023-09-19T10:40:23;21.65;;;5.93;;
64907;SDS011;69061;52.236;5.188;2023-09-19T10:42:58;13.23;;;4.50;;
64907;SDS011;69061;52.236;5.188;2023-09-19T10:45:30;15.98;;;5.20;;
64907;SDS011;69061;52.236;5.188;2023-09-19T10:48:01;21.48;;;5.60;;
64907;SDS011;69061;52.236;5.188;2023-09-19T10:50:31;18.50;;;5.38;;
64907;SDS011;69061;52.236;5.188;2023-09-19T10:53:02;19.25;;;5.47;;
64907;SDS011;69061;52.236;5.188;2023-09-19T10:55:33;14.40;;;5.13;;
64907;SDS011;69061;52.236;5.188;2023-09-19T10:58:01;19.33;;;5.40;;
64907;SDS011;69061;52.236;5.188;2023-09-19T11:00:52;18.30;;;5.65;;
64907;SDS011;69061;52.236;5.188;2023-09-19T11:03:22;16.63;;;5.72;;
64907;SDS011;69061;52.236;5.188;2023-09-19T11:06:01;12.73;;;5.15;;
64907;SDS011;69061;52.236;5.188;2023-09-19T11:11:47;16.90;;;4.70;;
64907;SDS011;69061;52.236;5.188;2023-09-19T11:23:20;21.75;;;5.00;;
64907;SDS011;69061;52.236;5.188;2023-09-19T11:25:52;17.15;;;4.60;;
64907;SDS011;69061;52.236;5.188;2023-09-19T11:28:28;10.40;;;3.78;;
64907;SDS011;69061;52.236;5.188;2023-09-19T11:40:33;12.32;;;4.70;;
64907;SDS011;69061;52.236;5.188;2023-09-19T11:43:00;13.82;;;4.43;;
64907;SDS011;69061;52.236;5.188;2023-09-19T11:46:08;15.75;;;4.03;;
64907;SDS011;69061;52.236;5.188;2023-09-19T11:48:35;21.60;;;4.18;;
64907;SDS011;69061;52.236;5.188;2023-09-19T11:51:10;10.80;;;4.28;;
64907;SDS011;69061;52.236;5.188;2023-09-19T11:53:44;9.50;;;3.33;;
64907;SDS011;69061;52.236;5.188;2023-09-19T11:56:14;9.52;;;3.42;;
64907;SDS011;69061;52.236;5.188;2023-09-19T11:58:42;14.00;;;4.20;;
64907;SDS011;69061;52.236;5.188;2023-09-19T12:01:11;11.35;;;3.83;;
64907;SDS011;69061;52.236;5.188;2023-09-19T12:03:51;16.48;;;5.63;;
64907;SDS011;69061;52.236;5.188;2023-09-19T12:06:20;13.27;;;3.40;;
64907;SDS011;69061;52.236;5.188;2023-09-19T12:08:47;11.25;;;3.45;;
64907;SDS011;69061;52.236;5.188;2023-09-19T12:11:17;6.57;;;3.45;;
64907;SDS011;69061;52.236;5.188;2023-09-19T12:13:46;14.88;;;3.85;;
64907;SDS011;69061;52.236;5.188;2023-09-19T12:16:14;11.93;;;3.80;;
64907;SDS011;69061;52.236;5.188;2023-09-19T12:18:42;10.75;;;3.33;;
64907;SDS011;69061;52.236;5.188;2023-09-19T12:21:26;17.70;;;5.05;;
64907;SDS011;69061;52.236;5.188;2023-09-19T12:24:03;13.02;;;3.95;;
64907;SDS011;69061;52.236;5.188;2023-09-19T12:26:39;16.70;;;3.88;;
64907;SDS011;69061;52.236;5.188;2023-09-19T12:29:21;9.52;;;3.83;;
64907;SDS011;69061;52.236;5.188;2023-09-19T12:31:48;15.32;;;3.55;;
64907;SDS011;69061;52.236;5.188;2023-09-19T12:34:21;12.10;;;3.85;;
64907;SDS011;69061;52.236;5.188;2023-09-19T12:37:03;9.32;;;3.75;;
64907;SDS011;69061;52.236;5.188;2023-09-19T12:39:36;19.92;;;4.22;;
64907;SDS011;69061;52.236;5.188;2023-09-19T12:42:05;15.50;;;3.90;;
64907;SDS011;69061;52.236;5.188;2023-09-19T12:44:34;7.45;;;3.35;;
64907;SDS011;69061;52.236;5.188;2023-09-19T12:47:07;12.18;;;3.97;;
64907;SDS011;69061;52.236;5.188;2023-09-19T12:49:35;15.43;;;4.18;;
64907;SDS011;69061;52.236;5.188;2023-09-19T12:52:02;11.70;;;3.55;;
64907;SDS011;69061;52.236;5.188;2023-09-19T12:54:37;13.95;;;4.53;;
64907;SDS011;69061;52.236;5.188;2023-09-19T12:57:06;15.63;;;4.10;;
64907;SDS011;69061;52.236;5.188;2023-09-19T12:59:33;11.35;;;3.65;;
64907;SDS011;69061;52.236;5.188;2023-09-19T13:02:04;10.50;;;3.90;;
64907;SDS011;69061;52.236;5.188;2023-09-19T13:04:38;19.67;;;4.93;;
64907;SDS011;69061;52.236;5.188;2023-09-19T13:07:06;10.55;;;3.50;;
64907;SDS011;69061;52.236;5.188;2023-09-19T13:09:35;14.43;;;3.88;;
64907;SDS011;69061;52.236;5.188;2023-09-19T13:12:03;10.10;;;3.55;;
64907;SDS011;69061;52.236;5.188;2023-09-19T13:14:34;12.02;;;3.30;;
64907;SDS011;69061;52.236;5.188;2023-09-19T13:17:06;7.32;;;3.38;;
64907;SDS011;69061;52.236;5.188;2023-09-19T13:19:41;9.15;;;3.15;;
64907;SDS011;69061;52.236;5.188;2023-09-19T13:25:04;8.57;;;3.60;;
64907;SDS011;69061;52.236;5.188;2023-09-19T13:27:33;7.38;;;3.25;;
64907;SDS011;69061;52.236;5.188;2023-09-19T13:30:04;6.20;;;3.47;;
64907;SDS011;69061;52.236;5.188;2023-09-19T13:32:31;6.90;;;3.47;;
64907;SDS011;69061;52.236;5.188;2023-09-19T13:34:59;7.63;;;3.33;;
64907;SDS011;69061;52.236;5.188;2023-09-19T13:37:25;10.82;;;3.80;;
64907;SDS011;69061;52.236;5.188;2023-09-19T13:39:52;16.08;;;4.20;;
64907;SDS011;69061;52.236;5.188;2023-09-19T13:42:19;13.95;;;4.00;;
64907;SDS011;69061;52.236;5.188;2023-09-19T13:44:47;8.88;;;4.22;;
64907;SDS011;69061;52.236;5.188;2023-09-19T13:47:15;12.88;;;3.55;;
64907;SDS011;69061;52.236;5.188;2023-09-19T13:49:42;8.48;;;3.40;;
64907;SDS011;69061;52.236;5.188;2023-09-19T13:52:09;14.00;;;3.97;;
64907;SDS011;69061;52.236;5.188;2023-09-19T13:54:38;17.00;;;5.07;;
64907;SDS011;69061;52.236;5.188;2023-09-19T13:57:04;7.03;;;3.63;;
64907;SDS011;69061;52.236;5.188;2023-09-19T13:59:34;11.13;;;3.58;;
64907;SDS011;69061;52.236;5.188;2023-09-19T14:02:01;10.57;;;3.70;;
64907;SDS011;69061;52.236;5.188;2023-09-19T14:04:32;8.68;;;3.65;;
64907;SDS011;69061;52.236;5.188;2023-09-19T14:06:59;7.97;;;4.18;;
64907;SDS011;69061;52.236;5.188;2023-09-19T14:09:26;11.07;;;3.78;;
64907;SDS011;69061;52.236;5.188;2023-09-19T14:11:53;10.98;;;3.90;;
64907;SDS011;69061;52.236;5.188;2023-09-19T14:14:20;11.50;;;3.80;;
64907;SDS011;69061;52.236;5.188;2023-09-19T14:16:46;11.55;;;4.40;;
64907;SDS011;69061;52.236;5.188;2023-09-19T14:19:13;14.32;;;4.13;;
64907;SDS011;69061;52.236;5.188;2023-09-19T14:21:43;14.70;;;4.45;;
64907;SDS011;69061;52.236;5.188;2023-09-19T14:24:09;10.52;;;4.20;;
64907;SDS011;69061;52.236;5.188;2023-09-19T14:26:37;8.05;;;3.88;;
64907;SDS011;69061;52.236;5.188;2023-09-19T14:29:04;10.85;;;3.83;;
64907;SDS011;69061;52.236;5.188;2023-09-19T14:31:32;10.93;;;4.03;;
64907;SDS011;69061;52.236;5.188;2023-09-19T14:33:59;9.55;;;4.03;;
64907;SDS011;69061;52.236;5.188;2023-09-19T14:36:26;17.27;;;4.88;;
64907;SDS011;69061;52.236;5.188;2023-09-19T14:38:56;11.90;;;4.82;;
64907;SDS011;69061;52.236;5.188;2023-09-19T14:41:23;13.18;;;4.45;;
64907;SDS011;69061;52.236;5.188;2023-09-19T14:43:50;15.15;;;5.80;;
64907;SDS011;69061;52.236;5.188;2023-09-19T14:46:17;17.25;;;5.00;;
64907;SDS011;69061;52.236;5.188;2023-09-19T14:48:45;14.60;;;5.35;;
64907;SDS011;69061;52.236;5.188;2023-09-19T14:51:13;14.00;;;5.07;;
64907;SDS011;69061;52.236;5.188;2023-09-19T14:53:40;10.00;;;4.40;;
64907;SDS011;69061;52.236;5.188;2023-09-19T14:56:09;14.27;;;5.07;;
64907;SDS011;69061;52.236;5.188;2023-09-19T14:58:36;21.90;;;5.32;;
64907;SDS011;69061;52.236;5.188;2023-09-19T15:01:04;12.73;;;5.35;;
64907;SDS011;69061;52.236;5.188;2023-09-19T15:03:31;16.05;;;5.72;;
64907;SDS011;69061;52.236;5.188;2023-09-19T15:06:01;24.23;;;6.20;;
64907;SDS011;69061;52.236;5.188;2023-09-19T15:08:29;15.40;;;4.70;;
64907;SDS011;69061;52.236;5.188;2023-09-19T15:10:57;15.10;;;4.93;;
64907;SDS011;69061;52.236;5.188;2023-09-19T15:13:30;12.18;;;4.72;;
64907;SDS011;69061;52.236;5.188;2023-09-19T15:16:00;13.93;;;5.18;;